Time;durP1;ratioP1;P1;durP2;ratioP2;P2;SDS_P1;SDS_P2;PMS_P1;PMS_P2;Temp;Humidity;BMP_temperature;BMP_pressure;BME280_temperature;BME280_humidity;BME280_pressure;Samples;Min_cycle;Max_cycle;Signal;HPM_P1;HPM_P2
2023/07/07 00:00:33;;;;;;;2.80;2.22;;;;;20.90;101780.00;;;;5006495;28;20209;-76
2023/07/07 00:03:00;;;;;;;3.67;2.33;;;;;20.90;101782.00;;;;5005614;28;20804;-76
2023/07/07 00:05:28;;;;;;;3.78;2.33;;;;;20.80;101776.00;;;;5008694;28;20201;-76
2023/07/07 00:07:57;;;;;;;4.22;2.80;;;;;20.80;101778.00;;;;5005170;28;21042;-75
2023/07/07 00:10:24;;;;;;;3.33;2.47;;;;;20.80;101778.00;;;;5006781;28;20675;-76
2023/07/07 00:12:52;;;;;;;3.72;2.28;;;;;20.80;101782.00;;;;5007669;28;20197;-75
2023/07/07 00:15:20;;;;;;;3.00;2.28;;;;;20.70;101777.00;;;;5007484;28;20275;-76
2023/07/07 00:17:50;;;;;;;2.67;1.88;;;;;20.70;101776.00;;;;5005833;28;20209;-76
2023/07/07 00:20:17;;;;;;;3.63;2.70;;;;;20.70;101785.00;;;;5003722;28;20193;-76
2023/07/07 00:22:47;;;;;;;4.05;2.17;;;;;20.60;101780.00;;;;4999614;28;20197;-76
2023/07/07 00:25:15;;;;;;;3.40;2.03;;;;;20.60;101777.00;;;;5001686;28;20251;-76
2023/07/07 00:27:42;;;;;;;3.03;2.55;;;;;20.60;101780.00;;;;5007021;28;20200;-76
2023/07/07 00:30:10;;;;;;;3.25;1.85;;;;;20.60;101774.00;;;;5003565;28;20205;-75
2023/07/07 00:32:39;;;;;;;2.30;1.90;;;;;20.60;101779.00;;;;5003111;28;20236;-77
2023/07/07 00:35:08;;;;;;;4.05;2.00;;;;;20.50;101781.00;;;;5006107;28;20725;-76
2023/07/07 00:37:36;;;;;;;2.50;2.13;;;;;20.50;101779.00;;;;5001121;28;20224;-76
2023/07/07 00:40:05;;;;;;;3.70;2.40;;;;;20.50;101772.00;;;;5007237;28;20202;-75
2023/07/07 00:42:32;;;;;;;2.72;1.92;;;;;20.50;101769.00;;;;5003379;28;20229;-75
2023/07/07 00:45:17;;;;;;;2.55;1.92;;;;;20.30;101768.00;;;;5010943;28;20255;-76
2023/07/07 00:47:57;;;;;;;2.95;2.33;;;;;20.30;101772.00;;;;5009609;28;20193;-76
2023/07/07 00:50:28;;;;;;;3.42;2.33;;;;;20.40;101772.00;;;;5011262;28;20209;-75
2023/07/07 00:52:55;;;;;;;2.45;1.85;;;;;20.40;101780.00;;;;5011395;28;20197;-75
2023/07/07 00:55:28;;;;;;;2.50;2.17;;;;;20.30;101778.00;;;;5010958;28;20221;-75
2023/07/07 00:57:55;;;;;;;2.72;2.17;;;;;20.40;101778.00;;;;5008339;28;20211;-75
2023/07/07 01:00:23;;;;;;;3.78;1.73;;;;;20.30;101779.00;;;;5009933;28;20681;-76
2023/07/07 01:02:55;;;;;;;3.13;2.10;;;;;20.30;101775.00;;;;5006484;28;20208;-76
2023/07/07 01:05:24;;;;;;;2.65;2.20;;;;;20.30;101770.00;;;;5008877;28;20693;-76
2023/07/07 01:07:53;;;;;;;3.63;2.25;;;;;20.30;101776.00;;;;5009324;28;20209;-76
2023/07/07 01:10:21;;;;;;;2.05;1.70;;;;;20.30;101779.00;;;;5010851;28;20204;-76
2023/07/07 01:12:50;;;;;;;3.42;2.45;;;;;20.20;101771.00;;;;5006974;28;20200;-76
2023/07/07 01:15:18;;;;;;;2.92;1.98;;;;;20.20;101769.00;;;;5000521;28;20220;-76
2023/07/07 01:17:59;;;;;;;2.17;1.98;;;;;20.10;101767.00;;;;5009652;28;20216;-76
2023/07/07 01:20:32;;;;;;;4.85;2.60;;;;;20.20;101774.00;;;;5009947;28;20193;-76
2023/07/07 01:23:36;;;;;;;2.92;2.33;;;;;20.10;101777.00;;;;5008407;28;20204;-76
2023/07/07 01:26:22;;;;;;;2.80;2.00;;;;;20.10;101770.00;;;;4964986;28;20213;-76
2023/07/07 01:29:18;;;;;;;3.80;2.40;;;;;20.00;101773.00;;;;5008461;28;20193;-76
2023/07/07 01:31:52;;;;;;;2.97;2.65;;;;;20.10;101770.00;;;;5006926;28;20205;-76
2023/07/07 01:34:19;;;;;;;2.95;2.65;;;;;20.10;101766.00;;;;5007466;28;20200;-75
2023/07/07 01:36:47;;;;;;;3.72;3.03;;;;;20.10;101779.00;;;;5011327;28;20196;-75
2023/07/07 01:39:14;;;;;;;4.40;2.92;;;;;20.10;101774.00;;;;5008411;28;20231;-76
2023/07/07 01:41:51;;;;;;;4.13;2.92;;;;;20.10;101780.00;;;;5008341;28;20203;-75
2023/07/07 01:44:24;;;;;;;3.47;3.13;;;;;20.10;101773.00;;;;5007330;28;20193;-76
2023/07/07 01:47:01;;;;;;;5.18;3.30;;;;;20.00;101768.00;;;;5009749;28;20204;-76
2023/07/07 01:49:33;;;;;;;3.92;3.13;;;;;20.00;101774.00;;;;5002705;28;20212;-75
2023/07/07 01:52:05;;;;;;;4.53;3.05;;;;;20.00;101772.00;;;;5010381;28;20204;-76
2023/07/07 01:54:37;;;;;;;4.63;4.05;;;;;20.10;101771.00;;;;5007911;28;20271;-76
2023/07/07 01:57:06;;;;;;;4.82;3.13;;;;;20.10;101764.00;;;;5010438;28;20193;-76
2023/07/07 01:59:34;;;;;;;5.65;3.53;;;;;20.10;101766.00;;;;5007046;28;20208;-76
2023/07/07 02:02:03;;;;;;;7.45;3.55;;;;;20.00;101764.00;;;;5010526;28;20197;-76
2023/07/07 02:04:30;;;;;;;4.57;3.65;;;;;20.10;101766.00;;;;4999376;28;20579;-75
2023/07/07 02:06:58;;;;;;;4.63;3.10;;;;;20.10;101763.00;;;;5002520;28;20201;-75
2023/07/07 02:09:25;;;;;;;5.00;4.35;;;;;20.00;101764.00;;;;5009076;28;20239;-76
2023/07/07 02:11:54;;;;;;;4.72;3.92;;;;;20.00;101759.00;;;;5009708;28;21223;-76
2023/07/07 02:14:21;;;;;;;4.28;3.80;;;;;20.00;101753.00;;;;5009389;28;20227;-76
2023/07/07 02:16:49;;;;;;;7.30;4.25;;;;;20.00;101756.00;;;;5007779;28;20196;-76
2023/07/07 02:19:18;;;;;;;6.75;3.85;;;;;20.00;101759.00;;;;5008952;28;20205;-76
2023/07/07 02:21:45;;;;;;;5.10;4.13;;;;;20.00;101758.00;;;;5008636;28;20198;-76
2023/07/07 02:24:13;;;;;;;4.85;3.53;;;;;20.00;101758.00;;;;5007938;28;20220;-76
2023/07/07 02:26:40;;;;;;;4.38;3.97;;;;;20.00;101752.00;;;;5008770;28;20193;-76
2023/07/07 02:29:08;;;;;;;4.90;3.95;;;;;20.00;101758.00;;;;5004910;28;20208;-76
2023/07/07 02:31:35;;;;;;;4.70;4.22;;;;;20.00;101751.00;;;;5008705;28;20687;-76
2023/07/07 02:34:02;;;;;;;5.00;4.43;;;;;20.00;101753.00;;;;5007512;28;20205;-76
2023/07/07 02:36:31;;;;;;;6.43;4.00;;;;;20.00;101753.00;;;;5009431;28;20229;-76
2023/07/07 02:38:58;;;;;;;5.00;3.92;;;;;20.00;101760.00;;;;5003335;28;20925;-75
2023/07/07 02:41:25;;;;;;;4.25;3.85;;;;;20.00;101757.00;;;;4995450;28;20786;-76
2023/07/07 02:43:53;;;;;;;6.68;4.57;;;;;20.00;101763.00;;;;5007250;28;20197;-76
2023/07/07 02:46:21;;;;;;;5.53;4.00;;;;;20.00;101768.00;;;;5007895;28;20213;-76
2023/07/07 02:48:48;;;;;;;3.90;3.50;;;;;20.00;101766.00;;;;5008910;28;20203;-76
2023/07/07 02:51:15;;;;;;;4.57;4.07;;;;;19.90;101768.00;;;;5007425;28;20212;-75
2023/07/07 02:53:44;;;;;;;5.82;4.18;;;;;19.90;101775.00;;;;5007924;28;20197;-76
2023/07/07 02:56:11;;;;;;;4.80;4.05;;;;;19.90;101773.00;;;;5004115;28;20236;-76
2023/07/07 02:58:39;;;;;;;7.05;4.43;;;;;19.90;101768.00;;;;5002838;28;20209;-76
2023/07/07 03:01:10;;;;;;;6.72;5.03;;;;;19.90;101766.00;;;;5001298;28;20690;-76
2023/07/07 03:03:38;;;;;;;4.82;4.32;;;;;19.90;101770.00;;;;5007477;28;20236;-76
2023/07/07 03:06:08;;;;;;;5.50;4.50;;;;;19.90;101773.00;;;;5007943;28;20229;-75
2023/07/07 03:08:35;;;;;;;5.63;4.10;;;;;19.90;101774.00;;;;5005910;28;20241;-77
2023/07/07 03:11:08;;;;;;;5.28;4.38;;;;;19.80;101780.00;;;;5005637;28;20659;-76
2023/07/07 03:13:36;;;;;;;4.10;3.70;;;;;19.90;101772.00;;;;5004406;28;20213;-76
2023/07/07 03:16:11;;;;;;;4.57;4.18;;;;;19.80;101769.00;;;;5001695;28;20228;-76
2023/07/07 03:18:39;;;;;;;6.60;4.13;;;;;19.90;101781.00;;;;5005902;28;20588;-76
2023/07/07 03:21:06;;;;;;;4.95;4.45;;;;;19.80;101778.00;;;;4990230;28;21004;-76
2023/07/07 03:23:34;;;;;;;4.50;4.10;;;;;19.80;101782.00;;;;5001496;28;20663;-76
2023/07/07 03:26:09;;;;;;;4.53;4.10;;;;;19.70;101779.00;;;;5007732;28;20204;-76
2023/07/07 03:28:37;;;;;;;4.00;3.60;;;;;19.80;101776.00;;;;5005380;28;20287;-76
2023/07/07 03:31:12;;;;;;;5.30;4.53;;;;;19.70;101776.00;;;;4998078;28;20201;-75
2023/07/07 03:33:41;;;;;;;5.97;4.03;;;;;19.80;101776.00;;;;5007102;28;20211;-76
2023/07/07 03:36:10;;;;;;;7.30;4.13;;;;;19.80;101783.00;;;;5006829;28;20231;-76
2023/07/07 03:38:37;;;;;;;5.90;3.90;;;;;19.80;101778.00;;;;5007363;28;20205;-76
2023/07/07 03:41:05;;;;;;;4.65;4.18;;;;;19.80;101777.00;;;;5005348;28;20205;-76
2023/07/07 03:43:34;;;;;;;5.22;4.15;;;;;19.80;101767.00;;;;5006288;28;20200;-76
2023/07/07 03:46:01;;;;;;;5.00;4.55;;;;;19.80;101775.00;;;;5005516;28;20662;-76
2023/07/07 03:48:29;;;;;;;4.43;4.00;;;;;19.80;101773.00;;;;5007191;28;20209;-75
2023/07/07 03:50:57;;;;;;;4.43;4.05;;;;;19.80;101773.00;;;;5005347;28;20213;-76
2023/07/07 03:53:24;;;;;;;5.10;4.13;;;;;19.80;101780.00;;;;5006951;28;20189;-76
2023/07/07 03:55:53;;;;;;;6.68;4.97;;;;;19.80;101777.00;;;;5003599;28;20701;-76
2023/07/07 03:58:20;;;;;;;6.90;4.47;;;;;19.80;101780.00;;;;5007382;28;20208;-75
2023/07/07 04:00:49;;;;;;;4.47;4.03;;;;;19.80;101782.00;;;;5004084;28;22146;-76
2023/07/07 04:03:18;;;;;;;4.95;4.25;;;;;19.80;101782.00;;;;5005320;28;20212;-76
2023/07/07 04:05:47;;;;;;;4.70;4.30;;;;;19.80;101790.00;;;;5004303;28;20208;-76
2023/07/07 04:08:15;;;;;;;5.43;4.53;;;;;19.80;101794.00;;;;5007983;28;20224;-76
2023/07/07 04:10:43;;;;;;;5.10;4.60;;;;;19.80;101790.00;;;;5007446;28;20203;-76
2023/07/07 04:13:10;;;;;;;5.68;4.18;;;;;19.80;101790.00;;;;5006616;28;20213;-76
2023/07/07 04:15:41;;;;;;;5.07;4.32;;;;;19.80;101788.00;;;;5007049;28;20233;-76
2023/07/07 04:18:09;;;;;;;4.65;4.05;;;;;19.80;101794.00;;;;5006767;28;20219;-76
2023/07/07 04:20:37;;;;;;;4.60;4.07;;;;;19.90;101792.00;;;;4989282;28;20204;-76
2023/07/07 04:23:04;;;;;;;5.22;4.25;;;;;19.90;101792.00;;;;5005702;28;20200;-75
2023/07/07 04:25:31;;;;;;;4.80;4.25;;;;;19.90;101796.00;;;;5006635;28;20203;-75
2023/07/07 04:27:59;;;;;;;7.93;4.72;;;;;20.00;101798.00;;;;4999041;28;20205;-75
2023/07/07 04:30:26;;;;;;;7.35;4.32;;;;;20.00;101797.00;;;;5006930;28;20314;-75
2023/07/07 04:32:53;;;;;;;5.57;4.82;;;;;20.00;101799.00;;;;5006606;28;20788;-75
2023/07/07 04:35:22;;;;;;;6.13;4.05;;;;;20.00;101806.00;;;;5006145;28;20221;-75
2023/07/07 04:37:49;;;;;;;5.00;4.50;;;;;20.10;101805.00;;;;5002480;28;20205;-75
2023/07/07 04:40:16;;;;;;;5.40;4.90;;;;;20.10;101801.00;;;;5004729;28;20205;-75
2023/07/07 04:42:44;;;;;;;5.75;4.80;;;;;20.10;101806.00;;;;5001903;28;20211;-75
2023/07/07 04:45:11;;;;;;;4.78;4.28;;;;;20.20;101802.00;;;;5002218;28;20205;-75
2023/07/07 04:47:39;;;;;;;5.55;4.35;;;;;20.20;101801.00;;;;4996475;28;20220;-76
2023/07/07 04:50:07;;;;;;;4.65;3.80;;;;;20.30;101798.00;;;;5004163;28;20753;-75
2023/07/07 04:52:39;;;;;;;5.10;4.63;;;;;20.30;101797.00;;;;5007259;28;20204;-75
2023/07/07 04:55:08;;;;;;;4.32;3.92;;;;;20.40;101790.00;;;;5004555;28;20548;-76
2023/07/07 04:57:35;;;;;;;4.72;4.07;;;;;20.40;101788.00;;;;5000043;28;20209;-76
2023/07/07 05:00:03;;;;;;;5.60;4.10;;;;;20.50;101794.00;;;;5002033;28;20212;-75
2023/07/07 05:02:31;;;;;;;6.03;4.63;;;;;20.50;101792.00;;;;4998813;28;20202;-75
2023/07/07 05:04:58;;;;;;;6.93;4.18;;;;;20.60;101797.00;;;;4996214;28;20209;-77
2023/07/07 05:07:28;;;;;;;4.95;4.40;;;;;20.60;101795.00;;;;5000449;28;20946;-74
2023/07/07 05:09:57;;;;;;;6.32;4.95;;;;;20.70;101790.00;;;;5005745;28;20702;-75
2023/07/07 05:12:24;;;;;;;7.25;4.32;;;;;20.70;101793.00;;;;5003353;28;20887;-74
2023/07/07 05:14:53;;;;;;;6.50;4.50;;;;;20.80;101796.00;;;;5002980;28;20225;-75
2023/07/07 05:17:20;;;;;;;5.43;4.40;;;;;20.90;101799.00;;;;5003232;28;20229;-77
2023/07/07 05:19:47;;;;;;;5.47;4.45;;;;;20.90;101801.00;;;;5005006;28;20205;-78
2023/07/07 05:22:15;;;;;;;5.03;4.57;;;;;21.00;101799.00;;;;5002711;28;20209;-74
2023/07/07 05:24:42;;;;;;;7.28;5.43;;;;;21.10;101803.00;;;;5006005;28;20919;-75
2023/07/07 05:27:11;;;;;;;5.95;5.05;;;;;21.10;101807.00;;;;5008270;28;20211;-74
2023/07/07 05:29:38;;;;;;;7.20;5.10;;;;;21.20;101814.00;;;;5006401;28;20201;-74
2023/07/07 05:32:06;;;;;;;6.38;5.13;;;;;21.30;101808.00;;;;5010457;28;20205;-74
2023/07/07 05:34:34;;;;;;;8.52;5.43;;;;;21.40;101812.00;;;;5010387;28;20201;-74
2023/07/07 05:37:01;;;;;;;5.85;5.25;;;;;21.40;101809.00;;;;5008770;28;20206;-74
2023/07/07 05:39:28;;;;;;;6.63;5.35;;;;;21.50;101814.00;;;;5008642;28;20208;-75
2023/07/07 05:41:56;;;;;;;5.93;5.15;;;;;21.60;101806.00;;;;5009840;28;20201;-76
2023/07/07 05:44:25;;;;;;;5.47;4.88;;;;;21.70;101808.00;;;;5010861;28;20220;-80
2023/07/07 05:46:54;;;;;;;5.63;4.32;;;;;21.70;101815.00;;;;5005178;28;20200;-75
2023/07/07 05:49:21;;;;;;;6.50;4.75;;;;;21.80;101806.00;;;;5008944;28;20204;-75
2023/07/07 05:51:48;;;;;;;5.57;4.45;;;;;21.90;101822.00;;;;5008943;28;20197;-75
2023/07/07 05:54:16;;;;;;;4.93;4.15;;;;;22.00;101819.00;;;;5007614;28;20200;-75
2023/07/07 05:56:43;;;;;;;6.25;4.82;;;;;22.10;101815.00;;;;5009856;28;20228;-74
2023/07/07 05:59:10;;;;;;;5.05;4.43;;;;;22.20;101819.00;;;;5008519;28;20201;-74
2023/07/07 06:01:39;;;;;;;7.47;4.72;;;;;22.20;101813.00;;;;5008190;28;20216;-75
2023/07/07 06:04:06;;;;;;;5.45;4.10;;;;;22.30;101815.00;;;;4996142;28;20201;-76
2023/07/07 06:06:34;;;;;;;5.75;4.20;;;;;22.40;101817.00;;;;4990646;28;20205;-75
2023/07/07 06:09:01;;;;;;;7.28;4.65;;;;;22.50;101823.00;;;;5007867;28;20232;-76
2023/07/07 06:11:28;;;;;;;6.25;4.63;;;;;22.60;101817.00;;;;5009912;28;20212;-77
2023/07/07 06:13:55;;;;;;;4.55;3.92;;;;;22.70;101821.00;;;;5008907;28;20223;-77
2023/07/07 06:16:23;;;;;;;4.30;3.90;;;;;22.80;101823.00;;;;5009645;28;20232;-77
2023/07/07 06:18:51;;;;;;;6.53;4.38;;;;;22.80;101833.00;;;;5010043;28;20209;-77
2023/07/07 06:21:19;;;;;;;5.88;4.60;;;;;22.90;101825.00;;;;4996268;28;20953;-77
2023/07/07 06:23:46;;;;;;;5.85;4.78;;;;;23.00;101823.00;;;;5009122;28;20202;-77
2023/07/07 06:26:13;;;;;;;6.88;3.78;;;;;23.10;101819.00;;;;5009302;28;20193;-77
2023/07/07 06:28:41;;;;;;;4.03;3.30;;;;;23.20;101822.00;;;;5008331;28;20199;-77
2023/07/07 06:31:08;;;;;;;6.25;4.18;;;;;23.30;101826.00;;;;5007753;28;20204;-77
2023/07/07 06:33:35;;;;;;;6.25;3.88;;;;;23.40;101832.00;;;;5010116;28;20209;-77
2023/07/07 06:36:04;;;;;;;5.57;4.40;;;;;23.50;101833.00;;;;5006579;28;20232;-77
2023/07/07 06:38:32;;;;;;;4.15;3.53;;;;;23.60;101835.00;;;;5006429;28;20581;-76
2023/07/07 06:40:59;;;;;;;4.38;3.67;;;;;23.70;101839.00;;;;5006881;28;20850;-77
2023/07/07 06:43:26;;;;;;;4.70;4.20;;;;;23.80;101841.00;;;;5009644;28;20204;-77
2023/07/07 06:45:57;;;;;;;4.68;3.78;;;;;23.80;101839.00;;;;5009643;28;20407;-78
2023/07/07 06:48:24;;;;;;;4.55;4.15;;;;;24.00;101841.00;;;;5006941;28;21009;-77
2023/07/07 06:50:51;;;;;;;4.50;4.00;;;;;24.10;101840.00;;;;5006011;28;20567;-77
2023/07/07 06:53:20;;;;;;;3.63;3.28;;;;;24.10;101840.00;;;;5009142;28;20193;-77
2023/07/07 06:55:47;;;;;;;4.55;3.88;;;;;24.20;101847.00;;;;5006674;28;20205;-77
2023/07/07 06:58:15;;;;;;;5.93;3.72;;;;;24.30;101849.00;;;;5009305;28;20229;-77
2023/07/07 07:00:43;;;;;;;4.03;3.28;;;;;24.40;101852.00;;;;5008623;28;20201;-77
2023/07/07 07:03:11;;;;;;;3.42;3.13;;;;;24.50;101850.00;;;;5007774;28;20576;-79
2023/07/07 07:05:38;;;;;;;4.10;3.70;;;;;24.60;101852.00;;;;5008980;28;20205;-77
2023/07/07 07:08:06;;;;;;;3.28;2.92;;;;;24.70;101858.00;;;;5007810;28;20211;-77
2023/07/07 07:10:34;;;;;;;5.57;3.03;;;;;24.80;101856.00;;;;5005933;28;20197;-78
2023/07/07 07:13:01;;;;;;;5.43;3.15;;;;;24.90;101856.00;;;;5007368;28;20201;-80
2023/07/07 07:15:30;;;;;;;4.63;3.60;;;;;25.00;101862.00;;;;5008949;28;20197;-78
2023/07/07 07:17:57;;;;;;;4.43;3.03;;;;;25.10;101862.00;;;;5009275;28;20240;-78
2023/07/07 07:20:24;;;;;;;4.82;2.60;;;;;25.20;101871.00;;;;5008599;28;20255;-79
2023/07/07 07:22:52;;;;;;;2.88;2.25;;;;;25.30;101872.00;;;;5007898;28;20201;-78
2023/07/07 07:25:19;;;;;;;4.10;2.47;;;;;25.40;101870.00;;;;5009551;28;20208;-78
2023/07/07 07:27:48;;;;;;;3.25;2.35;;;;;25.50;101862.00;;;;5008162;28;20220;-79
2023/07/07 07:30:15;;;;;;;4.50;2.60;;;;;25.60;101864.00;;;;5008222;28;20197;-78
2023/07/07 07:32:42;;;;;;;4.97;2.67;;;;;25.70;101859.00;;;;5009484;28;20198;-77
2023/07/07 07:35:12;;;;;;;4.07;2.30;;;;;25.80;101861.00;;;;5008874;28;20240;-78
2023/07/07 07:37:40;;;;;;;2.78;2.10;;;;;25.90;101871.00;;;;5009052;28;20303;-78
2023/07/07 07:40:08;;;;;;;3.08;2.28;;;;;26.00;101869.00;;;;5005953;28;20205;-78
2023/07/07 07:42:36;;;;;;;4.88;2.50;;;;;26.10;101872.00;;;;5009031;28;20197;-78
2023/07/07 07:45:05;;;;;;;4.75;2.70;;;;;26.20;101870.00;;;;5004551;28;20201;-79
2023/07/07 07:47:34;;;;;;;2.40;2.10;;;;;26.30;101879.00;;;;5007901;28;20586;-79
2023/07/07 07:50:01;;;;;;;2.97;1.95;;;;;26.50;101882.00;;;;5006629;28;20197;-78
2023/07/07 07:52:28;;;;;;;2.70;2.10;;;;;26.60;101883.00;;;;5007907;28;20201;-79
2023/07/07 07:54:56;;;;;;;4.03;2.20;;;;;26.70;101881.00;;;;5008273;28;20232;-78
2023/07/07 07:57:23;;;;;;;3.17;2.10;;;;;26.80;101880.00;;;;5008711;28;20225;-78
2023/07/07 07:59:50;;;;;;;3.25;1.90;;;;;27.00;101880.00;;;;5008543;28;20208;-78
2023/07/07 08:02:19;;;;;;;3.97;2.10;;;;;27.10;101874.00;;;;5004303;28;20201;-78
2023/07/07 08:04:46;;;;;;;4.07;2.53;;;;;27.20;101879.00;;;;5008805;28;20196;-80
2023/07/07 08:07:13;;;;;;;5.00;2.33;;;;;27.30;101880.00;;;;5005837;28;20690;-79
2023/07/07 08:09:41;;;;;;;3.42;2.15;;;;;27.40;101879.00;;;;5007176;28;20237;-77
2023/07/07 08:12:10;;;;;;;4.13;2.13;;;;;27.50;101889.00;;;;5008373;28;20220;-78
2023/07/07 08:14:37;;;;;;;3.90;1.90;;;;;27.60;101881.00;;;;5005934;28;20221;-79
2023/07/07 08:17:09;;;;;;;1.73;1.35;;;;;27.70;101880.00;;;;5005348;28;20232;-78
2023/07/07 08:19:40;;;;;;;2.30;1.65;;;;;27.80;101885.00;;;;5001196;28;20216;-78
2023/07/07 08:22:11;;;;;;;2.30;1.88;;;;;28.00;101886.00;;;;5007550;28;20201;-78
2023/07/07 08:24:41;;;;;;;3.55;1.88;;;;;28.10;101891.00;;;;5005242;28;20207;-78
2023/07/07 08:27:09;;;;;;;4.97;1.90;;;;;28.20;101885.00;;;;5006309;28;20212;-78
2023/07/07 08:29:37;;;;;;;2.78;1.83;;;;;28.30;101891.00;;;;5006053;28;20205;-80
2023/07/07 08:32:05;;;;;;;2.55;1.70;;;;;28.50;101890.00;;;;5007344;28;20204;-78
2023/07/07 08:34:32;;;;;;;5.07;1.77;;;;;28.60;101885.00;;;;5004435;28;20204;-80
2023/07/07 08:37:00;;;;;;;3.65;1.75;;;;;28.70;101887.00;;;;4998186;28;20229;-80
2023/07/07 08:39:30;;;;;;;2.28;1.85;;;;;28.70;101888.00;;;;5005934;28;20205;-79
2023/07/07 08:42:01;;;;;;;3.78;1.65;;;;;28.80;101898.00;;;;5007258;28;20193;-79
2023/07/07 08:44:30;;;;;;;3.97;1.95;;;;;29.00;101891.00;;;;5006785;28;20201;-81
2023/07/07 08:47:09;;;;;;;2.88;2.05;;;;;29.00;101893.00;;;;5004589;28;20197;-78
2023/07/07 08:49:45;;;;;;;2.50;1.67;;;;;29.10;101888.00;;;;4988486;28;20205;-80
2023/07/07 08:52:25;;;;;;;2.42;1.52;;;;;29.20;101892.00;;;;4996037;28;20205;-81
2023/07/07 08:55:00;;;;;;;2.10;1.60;;;;;29.40;101899.00;;;;5006719;28;20215;-79
2023/07/07 08:57:32;;;;;;;1.85;1.50;;;;;29.50;101899.00;;;;5008271;28;20228;-78
2023/07/07 09:00:06;;;;;;;2.15;1.40;;;;;29.60;101890.00;;;;5008854;28;20194;-79
2023/07/07 09:03:01;;;;;;;5.10;1.50;;;;;29.70;101889.00;;;;5011542;28;20215;-78
2023/07/07 09:05:43;;;;;;;3.70;1.65;;;;;29.80;101896.00;;;;5012104;28;20204;-79
2023/07/07 09:08:23;;;;;;;2.10;1.52;;;;;29.90;101898.00;;;;5010533;28;20573;-77
2023/07/07 09:11:00;;;;;;;2.03;1.55;;;;;30.10;101891.00;;;;5001227;28;20201;-76
2023/07/07 09:13:30;;;;;;;3.38;1.52;;;;;30.20;101895.00;;;;5000166;28;20217;-76
2023/07/07 09:16:09;;;;;;;2.95;1.40;;;;;30.30;101903.00;;;;4997269;28;20212;-78
2023/07/07 09:18:40;;;;;;;3.65;1.83;;;;;30.40;101898.00;;;;5007856;28;20240;-77
2023/07/07 09:21:19;;;;;;;2.58;1.88;;;;;30.50;101895.00;;;;5008530;28;20200;-77
2023/07/07 09:23:49;;;;;;;4.20;1.70;;;;;30.60;101901.00;;;;5009451;28;20227;-77
2023/07/07 09:26:23;;;;;;;1.75;1.30;;;;;30.70;101901.00;;;;5007340;28;20209;-77
2023/07/07 09:28:54;;;;;;;2.47;1.60;;;;;30.80;101894.00;;;;5005895;28;20200;-76
2023/07/07 09:31:29;;;;;;;5.40;1.48;;;;;30.90;101895.00;;;;5009296;28;20574;-78
2023/07/07 09:33:59;;;;;;;2.80;1.42;;;;;31.00;101900.00;;;;5010072;28;20204;-77
2023/07/07 09:36:31;;;;;;;2.33;1.10;;;;;31.10;101899.00;;;;5010979;28;20924;-76
2023/07/07 09:39:12;;;;;;;2.60;1.13;;;;;31.20;101896.00;;;;5002697;28;20221;-76
2023/07/07 09:41:49;;;;;;;1.90;1.33;;;;;31.30;101895.00;;;;5008906;28;20307;-78
2023/07/07 09:44:33;;;;;;;3.03;1.23;;;;;31.30;101896.00;;;;5002130;28;20208;-77
2023/07/07 09:47:12;;;;;;;1.60;1.08;;;;;31.40;101892.00;;;;5007896;28;20201;-76
2023/07/07 09:49:44;;;;;;;2.50;1.13;;;;;31.50;101895.00;;;;5008809;28;20296;-76
2023/07/07 09:52:27;;;;;;;1.50;1.20;;;;;31.50;101893.00;;;;5009227;28;20205;-79
2023/07/07 09:54:58;;;;;;;3.05;1.55;;;;;31.70;101893.00;;;;5010562;28;20197;-76
2023/07/07 09:57:31;;;;;;;1.67;1.20;;;;;31.70;101888.00;;;;5011044;28;20221;-78
2023/07/07 10:00:00;;;;;;;4.68;1.27;;;;;31.80;101892.00;;;;5008808;28;20215;-77
2023/07/07 10:02:28;;;;;;;1.60;1.30;;;;;31.80;101889.00;;;;5007510;28;20197;-77
2023/07/07 10:04:58;;;;;;;1.77;1.15;;;;;31.80;101887.00;;;;5010656;28;20208;-78
2023/07/07 10:07:27;;;;;;;2.03;1.40;;;;;31.90;101895.00;;;;5010227;28;20204;-77
2023/07/07 10:09:59;;;;;;;2.00;1.17;;;;;32.00;101891.00;;;;5008048;28;20236;-79
2023/07/07 10:12:27;;;;;;;2.50;1.40;;;;;32.10;101889.00;;;;5005818;28;20197;-78
2023/07/07 10:14:56;;;;;;;1.42;1.20;;;;;32.20;101894.00;;;;5008160;28;20698;-81
2023/07/07 10:17:32;;;;;;;2.05;1.45;;;;;32.20;101892.00;;;;5008290;28;20228;-78
2023/07/07 10:20:01;;;;;;;1.58;1.42;;;;;32.30;101894.00;;;;4997635;28;20200;-78
2023/07/07 10:22:29;;;;;;;1.90;1.25;;;;;32.40;101893.00;;;;5007960;28;20193;-78
2023/07/07 10:24:58;;;;;;;1.30;1.02;;;;;32.40;101891.00;;;;5008538;28;20307;-78
2023/07/07 10:27:27;;;;;;;2.53;1.50;;;;;32.50;101890.00;;;;4993317;28;20196;-78
2023/07/07 10:29:59;;;;;;;1.88;1.33;;;;;32.50;101888.00;;;;5008611;28;20614;-79
2023/07/07 10:32:27;;;;;;;1.90;1.40;;;;;32.50;101884.00;;;;5006227;28;20209;-77
2023/07/07 10:34:58;;;;;;;2.40;1.52;;;;;32.60;101881.00;;;;5008124;28;20197;-78
2023/07/07 10:37:28;;;;;;;2.55;1.45;;;;;32.70;101893.00;;;;5008642;28;20228;-78
2023/07/07 10:39:58;;;;;;;2.08;1.05;;;;;32.70;101889.00;;;;5007396;28;20196;-77
2023/07/07 10:42:28;;;;;;;1.30;1.13;;;;;32.70;101878.00;;;;5009917;28;20203;-78
2023/07/07 10:44:56;;;;;;;2.53;1.27;;;;;32.80;101884.00;;;;5009324;28;20197;-80
2023/07/07 10:47:31;;;;;;;1.80;1.38;;;;;32.70;101876.00;;;;5008217;28;20203;-83
2023/07/07 10:49:59;;;;;;;5.05;1.25;;;;;32.80;101879.00;;;;5005526;28;20204;-81
2023/07/07 10:52:46;;;;;;;1.65;1.27;;;;;32.80;101882.00;;;;5008826;28;20697;-81
2023/07/07 10:55:24;;;;;;;2.75;1.40;;;;;32.80;101882.00;;;;4999853;28;20235;-79
2023/07/07 10:58:04;;;;;;;2.97;1.55;;;;;32.90;101879.00;;;;5001676;28;20224;-80
2023/07/07 11:00:42;;;;;;;2.10;1.30;;;;;32.90;101881.00;;;;5002981;28;20284;-80
2023/07/07 11:04:00;;;;;;;1.88;1.30;;;;;32.80;101875.00;;;;5002059;28;20200;-83
2023/07/07 11:06:34;;;;;;;2.13;1.45;;;;;32.80;101875.00;;;;5002531;28;20201;-81
2023/07/07 11:09:13;;;;;;;2.03;1.20;;;;;32.80;101874.00;;;;5009396;28;20227;-83
2023/07/07 11:11:55;;;;;;;1.70;1.45;;;;;32.80;101873.00;;;;4998330;28;20205;-81
2023/07/07 11:14:46;;;;;;;1.40;1.30;;;;;32.90;101871.00;;;;5008946;28;20268;-83
2023/07/07 11:17:26;;;;;;;1.48;1.15;;;;;32.90;101878.00;;;;5007208;28;20197;-81
2023/07/07 11:20:16;;;;;;;2.03;1.30;;;;;32.90;101873.00;;;;5001011;28;20197;-80
2023/07/07 11:23:00;;;;;;;2.22;1.27;;;;;32.90;101864.00;;;;5007105;28;20204;-80
2023/07/07 11:25:34;;;;;;;1.63;1.02;;;;;32.90;101872.00;;;;5008545;28;20570;-80
2023/07/07 11:28:19;;;;;;;5.63;1.48;;;;;32.90;101870.00;;;;5005283;28;20666;-81
2023/07/07 11:30:55;;;;;;;2.15;1.40;;;;;32.90;101862.00;;;;5014765;28;20223;-80
2023/07/07 11:33:36;;;;;;;1.88;1.42;;;;;32.90;101863.00;;;;5011541;28;21039;-80
2023/07/07 11:36:29;;;;;;;1.20;1.10;;;;;32.90;101865.00;;;;4996561;28;20216;-81
2023/07/07 11:39:10;;;;;;;1.75;1.15;;;;;32.90;101859.00;;;;5008182;28;20594;-79
2023/07/07 11:41:53;;;;;;;1.50;1.30;;;;;32.90;101865.00;;;;5008706;28;20603;-80
2023/07/07 11:44:42;;;;;;;2.58;1.58;;;;;32.90;101859.00;;;;5004945;28;20200;-79
2023/07/07 11:47:42;;;;;;;2.15;1.23;;;;;32.90;101860.00;;;;5004775;28;20200;-79
2023/07/07 11:50:26;;;;;;;1.90;1.00;;;;;33.00;101861.00;;;;4998117;28;20197;-78
2023/07/07 11:53:12;;;;;;;1.30;1.05;;;;;33.00;101856.00;;;;5005099;28;20204;-78
2023/07/07 11:55:59;;;;;;;1.55;1.30;;;;;33.00;101856.00;;;;5002879;28;20201;-78
2023/07/07 11:58:34;;;;;;;1.58;1.02;;;;;33.10;101849.00;;;;5002245;28;20223;-77
2023/07/07 12:01:13;;;;;;;1.90;1.50;;;;;33.10;101857.00;;;;4999256;28;20205;-79
2023/07/07 12:03:55;;;;;;;1.70;1.10;;;;;33.10;101851.00;;;;4997737;28;20200;-79
2023/07/07 12:06:31;;;;;;;3.35;1.73;;;;;33.20;101852.00;;;;5005985;28;20544;-78
2023/07/07 12:09:07;;;;;;;2.08;1.33;;;;;33.20;101853.00;;;;5007313;28;20240;-78
2023/07/07 12:11:43;;;;;;;2.20;1.40;;;;;33.30;101847.00;;;;5001074;28;20208;-78
2023/07/07 12:14:26;;;;;;;3.13;1.50;;;;;33.20;101853.00;;;;4997245;28;20261;-78
2023/07/07 12:16:59;;;;;;;9.07;1.52;;;;;33.30;101839.00;;;;4995141;28;20189;-77
2023/07/07 12:19:36;;;;;;;2.05;1.33;;;;;33.30;101837.00;;;;4996894;28;20232;-78
2023/07/07 12:22:06;;;;;;;1.95;1.38;;;;;33.40;101833.00;;;;5006612;28;20198;-77
2023/07/07 12:24:45;;;;;;;2.10;1.50;;;;;33.40;101839.00;;;;5003326;28;20193;-80
2023/07/07 12:27:17;;;;;;;2.28;1.55;;;;;33.50;101846.00;;;;4996924;28;20196;-78